< < Back
Terminal Aerodrome Forecast


Current Version              Previous Versions:   1  2  3  4  5  6  7  8  9  

Terminal Aerodrome Forecast

265
FTUS44 KBMX 301100
TAFANB
TAF
KANB 301122Z 3012/0112 00000KT P6SM OVC015
     FM301500 05003KT P6SM SKC
     FM010200 00000KT P6SM SKC
     FM010800 00000KT 4SM BR SKC=

Latest METAR

334
SAUS70 KWBC 301600 RRD
MTRANB
METAR KANB 301553Z AUTO 11004KT 10SM FEW027 24/17 A2997 RMK AO2 SLP143
T02440172


USA.gov is the U.S. government's official web portal to all federal, state and local government web resources and services.